createdAt,value
2023-10-26T00:01:20.652Z,13.06
2023-10-26T00:03:49.134Z,12.96
2023-10-26T00:06:17.340Z,12.82
2023-10-26T00:08:45.797Z,12.80
2023-10-26T00:11:13.930Z,12.90
2023-10-26T00:13:42.070Z,13.04
2023-10-26T00:16:10.154Z,13.20
2023-10-26T00:18:38.284Z,13.30
2023-10-26T00:21:06.471Z,13.40
2023-10-26T00:23:34.483Z,13.40
2023-10-26T00:26:02.666Z,13.50
2023-10-26T00:28:30.801Z,13.50
2023-10-26T00:30:58.865Z,13.50
2023-10-26T00:33:26.963Z,13.58
2023-10-26T00:35:55.434Z,13.60
2023-10-26T00:38:23.562Z,13.50
2023-10-26T00:40:51.575Z,13.40
2023-10-26T00:43:21.714Z,13.40
2023-10-26T00:45:53.485Z,13.30
2023-10-26T00:48:21.932Z,13.40
2023-10-26T00:50:50.437Z,13.48
2023-10-26T00:53:19.887Z,13.40
2023-10-26T00:55:50.561Z,13.40
2023-10-26T00:58:19.152Z,13.40
2023-10-26T01:00:47.257Z,13.40
2023-10-26T01:03:15.991Z,13.40
2023-10-26T01:05:44.218Z,13.34
2023-10-26T01:08:12.146Z,13.30
2023-10-26T01:10:40.145Z,13.30
2023-10-26T01:13:09.597Z,13.20
2023-10-26T01:15:37.737Z,13.20
2023-10-26T01:18:07.359Z,13.32
2023-10-26T01:20:36.097Z,13.40
2023-10-26T01:23:04.706Z,13.40
2023-10-26T01:25:32.896Z,13.40
2023-10-26T01:28:00.925Z,13.40
2023-10-26T01:30:29.561Z,13.32
2023-10-26T01:32:57.942Z,13.30
2023-10-26T01:35:25.976Z,13.24
2023-10-26T01:37:55.777Z,13.20
2023-10-26T01:40:23.934Z,13.20
2023-10-26T01:42:52.126Z,13.12
2023-10-26T01:45:20.502Z,13.10
2023-10-26T01:47:48.740Z,13.10
2023-10-26T01:50:17.097Z,13.10
2023-10-26T01:52:45.345Z,13.20
2023-10-26T01:55:13.453Z,13.10
2023-10-26T01:57:41.471Z,13.08
2023-10-26T02:00:10.160Z,12.90
2023-10-26T02:02:42.643Z,12.80
2023-10-26T02:05:10.918Z,12.90
2023-10-26T02:07:39.214Z,12.98
2023-10-26T02:10:07.538Z,12.96
2023-10-26T02:12:35.652Z,12.90
2023-10-26T02:15:04.731Z,12.90
2023-10-26T02:17:32.853Z,12.94
2023-10-26T02:20:01.227Z,13.10
2023-10-26T02:22:29.307Z,13.20
2023-10-26T02:24:57.436Z,13.20
2023-10-26T02:27:25.489Z,13.20
2023-10-26T02:29:53.801Z,13.20
2023-10-26T02:32:22.095Z,13.10
2023-10-26T02:34:50.304Z,13.14
2023-10-26T02:37:19.774Z,13.20
2023-10-26T02:39:47.942Z,13.20
2023-10-26T02:42:16.126Z,13.10
2023-10-26T02:44:45.542Z,13.06
2023-10-26T02:47:13.907Z,13.10
2023-10-26T02:49:42.121Z,13.18
2023-10-26T02:52:10.163Z,13.10
2023-10-26T02:54:38.331Z,13.00
2023-10-26T02:57:06.630Z,13.00
2023-10-26T02:59:35.598Z,13.04
2023-10-26T03:02:03.789Z,13.10
2023-10-26T03:04:32.620Z,13.20
2023-10-26T03:07:00.800Z,13.30
2023-10-26T03:09:29.785Z,13.40
2023-10-26T03:11:57.951Z,13.50
2023-10-26T03:14:26.305Z,13.50
2023-10-26T03:16:54.423Z,13.40
2023-10-26T03:19:23.549Z,13.40
2023-10-26T03:21:51.824Z,13.50
2023-10-26T03:24:19.984Z,13.60
2023-10-26T03:26:47.940Z,13.70
2023-10-26T03:29:16.182Z,13.70
2023-10-26T03:31:45.395Z,13.68
2023-10-26T03:34:13.480Z,13.56
2023-10-26T03:36:42.412Z,13.50
2023-10-26T03:39:10.592Z,13.30
2023-10-26T03:41:39.865Z,13.30
2023-10-26T03:44:09.431Z,13.20
2023-10-26T03:46:37.364Z,13.20
2023-10-26T03:49:05.532Z,13.10
2023-10-26T03:51:33.613Z,12.90
2023-10-26T03:54:01.826Z,12.40
2023-10-26T03:56:30.250Z,12.20
2023-10-26T03:58:58.457Z,12.10
2023-10-26T04:01:26.526Z,12.10
2023-10-26T04:03:55.099Z,12.24
2023-10-26T04:06:23.252Z,12.30
2023-10-26T04:08:51.330Z,12.40
2023-10-26T04:11:19.676Z,12.48
2023-10-26T04:13:47.795Z,12.60
2023-10-26T04:16:16.660Z,12.30
2023-10-26T04:18:44.848Z,12.20
2023-10-26T04:21:12.992Z,12.20
2023-10-26T04:23:41.266Z,12.20
2023-10-26T04:26:10.381Z,12.10
2023-10-26T04:28:50.867Z,12.08
2023-10-26T04:31:21.509Z,12.30
2023-10-26T04:33:50.037Z,12.54
2023-10-26T04:36:20.435Z,12.72
2023-10-26T04:38:48.642Z,12.82
2023-10-26T04:41:16.795Z,12.84
2023-10-26T04:43:44.821Z,12.90
2023-10-26T04:46:12.912Z,12.82
2023-10-26T04:48:41.114Z,12.80
2023-10-26T04:51:10.008Z,12.90
2023-10-26T04:53:38.020Z,12.80
2023-10-26T04:56:06.592Z,12.88
2023-10-26T04:58:34.652Z,12.90
2023-10-26T05:01:03.258Z,12.80
2023-10-26T05:03:31.543Z,12.78
2023-10-26T05:05:59.999Z,12.80
2023-10-26T05:08:28.354Z,12.80
2023-10-26T05:10:56.531Z,12.80
2023-10-26T05:13:25.337Z,12.70
2023-10-26T05:15:53.547Z,12.70
2023-10-26T05:18:21.767Z,12.70
2023-10-26T05:20:52.664Z,12.70
2023-10-26T05:23:20.895Z,12.60
2023-10-26T05:25:49.402Z,12.68
2023-10-26T05:28:17.701Z,12.60
2023-10-26T05:30:45.706Z,12.70
2023-10-26T05:33:13.753Z,12.70
2023-10-26T05:35:42.106Z,12.66
2023-10-26T05:38:11.113Z,12.64
2023-10-26T05:40:39.175Z,12.70
2023-10-26T05:43:07.497Z,12.80
2023-10-26T05:45:41.394Z,12.84
2023-10-26T05:48:11.863Z,12.90
2023-10-26T05:50:43.104Z,13.06
2023-10-26T05:53:11.356Z,13.10
2023-10-26T05:55:40.800Z,13.20
2023-10-26T05:58:11.576Z,13.20
2023-10-26T06:00:39.908Z,13.20
2023-10-26T06:03:08.661Z,13.10
2023-10-26T06:05:37.068Z,13.10
2023-10-26T06:08:05.351Z,12.98
2023-10-26T06:10:33.960Z,13.00
2023-10-26T06:13:03.671Z,12.94
2023-10-26T06:15:31.960Z,13.00
2023-10-26T06:18:00.344Z,13.10
2023-10-26T06:20:30.990Z,13.20
2023-10-26T06:22:59.299Z,13.24
2023-10-26T06:25:29.400Z,13.30
2023-10-26T06:27:58.609Z,13.38
2023-10-26T06:30:27.052Z,13.40
2023-10-26T06:32:55.441Z,13.40
2023-10-26T06:35:23.671Z,13.46
2023-10-26T06:37:51.829Z,13.48
2023-10-26T06:40:20.030Z,13.44
2023-10-26T06:42:48.028Z,13.50
2023-10-26T06:45:16.222Z,13.52
2023-10-26T06:47:44.356Z,13.50
2023-10-26T06:50:12.478Z,13.60
2023-10-26T06:52:40.712Z,13.60
2023-10-26T06:55:24.022Z,13.62
2023-10-26T06:57:58.725Z,13.70
2023-10-26T07:00:27.396Z,13.80
2023-10-26T07:02:56.029Z,13.90
2023-10-26T07:05:24.562Z,14.00
2023-10-26T07:07:52.892Z,14.00
2023-10-26T07:10:21.201Z,14.06
2023-10-26T07:12:49.525Z,14.00
2023-10-26T07:15:17.924Z,14.00
2023-10-26T07:17:46.306Z,14.10
2023-10-26T07:20:14.518Z,14.08
2023-10-26T07:22:44.007Z,14.18
2023-10-26T07:25:12.372Z,14.20
2023-10-26T07:27:41.232Z,14.20
2023-10-26T07:30:09.755Z,14.20
2023-10-26T07:32:38.212Z,14.30
2023-10-26T07:35:06.674Z,14.40
2023-10-26T07:37:34.827Z,14.36
2023-10-26T07:40:18.579Z,14.50
2023-10-26T07:42:51.124Z,14.66
2023-10-26T07:45:19.850Z,14.68
2023-10-26T07:47:48.050Z,14.70
2023-10-26T07:50:21.405Z,14.80
2023-10-26T07:52:50.047Z,14.80
2023-10-26T07:55:18.542Z,14.90
2023-10-26T07:57:47.890Z,15.00
2023-10-26T08:00:16.304Z,15.10
2023-10-26T08:02:44.924Z,15.28
2023-10-26T08:05:13.994Z,15.40
2023-10-26T08:07:43.201Z,15.50
2023-10-26T08:10:11.921Z,15.60
2023-10-26T08:12:40.709Z,15.64
2023-10-26T08:16:11.134Z,15.80
2023-10-26T08:17:57.963Z,16.00
2023-10-26T08:20:26.405Z,16.00
2023-10-26T08:22:54.658Z,16.10
2023-10-26T08:25:25.537Z,16.20
2023-10-26T08:27:54.278Z,16.30
2023-10-26T08:30:24.654Z,16.40
2023-10-26T08:32:55.623Z,16.42
2023-10-26T08:35:24.271Z,16.48
2023-10-26T08:37:52.640Z,16.50
2023-10-26T08:40:21.190Z,16.50
2023-10-26T08:42:49.332Z,16.56
2023-10-26T08:45:25.334Z,16.50
2023-10-26T08:47:53.816Z,16.50
2023-10-26T08:50:23.312Z,16.50
2023-10-26T08:52:54.452Z,16.48
2023-10-26T08:55:22.838Z,16.50
2023-10-26T08:57:53.227Z,16.60
2023-10-26T09:00:21.635Z,16.60
2023-10-26T09:02:50.687Z,16.70
2023-10-26T09:05:19.295Z,16.64
2023-10-26T09:07:47.770Z,16.80
2023-10-26T09:10:34.508Z,16.86
2023-10-26T09:13:07.542Z,16.90
2023-10-26T09:15:51.495Z,16.90
2023-10-26T09:18:21.662Z,17.00
2023-10-26T09:21:07.098Z,17.00
2023-10-26T09:23:36.620Z,16.90
2023-10-26T09:26:09.818Z,16.90
2023-10-26T09:29:04.475Z,16.98
2023-10-26T09:31:32.913Z,16.90
2023-10-26T09:34:10.745Z,16.82
2023-10-26T09:36:39.137Z,16.80
2023-10-26T09:39:09.894Z,16.80
2023-10-26T09:41:38.006Z,17.00
2023-10-26T09:44:06.205Z,17.10
2023-10-26T09:46:34.683Z,17.10
2023-10-26T09:49:03.006Z,17.10
2023-10-26T09:51:31.161Z,17.08
2023-10-26T09:53:59.451Z,17.10
2023-10-26T09:56:28.010Z,17.18
2023-10-26T09:58:56.256Z,17.22
2023-10-26T10:01:37.050Z,17.30
2023-10-26T10:04:06.051Z,17.40
2023-10-26T10:06:54.384Z,17.36
2023-10-26T10:09:25.343Z,17.40
2023-10-26T10:12:15.199Z,17.40
2023-10-26T10:14:58.345Z,17.50
2023-10-26T10:18:04.305Z,17.62
2023-10-26T10:20:35.648Z,17.70
2023-10-26T10:23:04.718Z,17.70
2023-10-26T10:25:51.418Z,17.80
2023-10-26T10:28:20.047Z,17.92
2023-10-26T10:30:59.211Z,18.08
2023-10-26T10:33:28.848Z,18.06
2023-10-26T10:36:04.412Z,18.00
2023-10-26T10:38:35.092Z,18.10
2023-10-26T10:41:03.444Z,18.10
2023-10-26T10:43:42.052Z,18.20
2023-10-26T10:46:16.375Z,18.30
2023-10-26T10:49:15.953Z,18.30
2023-10-26T10:51:44.810Z,18.36
2023-10-26T10:54:26.468Z,18.40
2023-10-26T10:56:59.151Z,18.50
2023-10-26T10:59:28.052Z,18.40
2023-10-26T11:02:11.844Z,18.40
2023-10-26T11:05:05.402Z,18.40
2023-10-26T11:07:37.629Z,18.40
2023-10-26T11:10:06.976Z,18.40
2023-10-26T11:12:35.128Z,18.40
2023-10-26T11:15:05.101Z,18.30
2023-10-26T11:17:33.437Z,18.30
2023-10-26T11:20:01.723Z,18.40
2023-10-26T11:22:30.063Z,18.40
2023-10-26T11:24:58.775Z,18.34
2023-10-26T11:27:27.220Z,18.30
2023-10-26T11:30:04.513Z,18.30
2023-10-26T11:32:32.734Z,18.30
2023-10-26T11:35:15.142Z,18.30
2023-10-26T11:38:04.529Z,18.40
2023-10-26T11:40:33.957Z,18.42
2023-10-26T11:43:04.561Z,18.40
2023-10-26T11:45:47.291Z,18.40
2023-10-26T11:48:32.303Z,18.40
2023-10-26T11:51:00.883Z,18.40
2023-10-26T11:53:29.011Z,18.40
2023-10-26T11:55:57.250Z,18.30
2023-10-26T11:58:25.392Z,18.30
2023-10-26T12:00:53.652Z,18.26
2023-10-26T12:03:22.500Z,18.20
2023-10-26T12:05:50.796Z,18.20
2023-10-26T12:08:19.118Z,18.20
2023-10-26T12:10:47.844Z,18.10
2023-10-26T12:13:16.018Z,18.00
2023-10-26T12:15:44.078Z,18.06
2023-10-26T12:18:12.565Z,18.00
2023-10-26T12:20:40.667Z,17.80
2023-10-26T12:23:09.491Z,17.80
2023-10-26T12:25:37.568Z,17.82
2023-10-26T12:28:19.794Z,17.80
2023-10-26T12:30:51.394Z,17.88
2023-10-26T12:33:20.357Z,17.80
2023-10-26T12:35:48.575Z,17.70
2023-10-26T12:38:16.670Z,17.80
2023-10-26T12:40:45.245Z,17.82
2023-10-26T12:43:13.486Z,17.70
2023-10-26T12:45:41.805Z,17.80
2023-10-26T12:48:10.048Z,17.70
2023-10-26T12:50:38.161Z,17.80
2023-10-26T12:53:06.723Z,17.80
2023-10-26T12:55:35.694Z,17.88
2023-10-26T12:58:04.000Z,17.92
2023-10-26T13:00:32.213Z,18.10
2023-10-26T13:03:00.523Z,18.30
2023-10-26T13:05:28.743Z,18.40
2023-10-26T13:07:56.893Z,18.50
2023-10-26T13:10:25.697Z,18.60
2023-10-26T13:12:53.962Z,18.60
2023-10-26T13:15:22.220Z,18.68
2023-10-26T13:17:50.593Z,18.60
2023-10-26T13:20:19.070Z,18.60
2023-10-26T13:22:47.414Z,18.60
2023-10-26T13:25:15.698Z,18.60
2023-10-26T13:27:43.958Z,18.70
2023-10-26T13:30:12.590Z,18.70
2023-10-26T13:32:43.122Z,18.80
2023-10-26T13:35:11.926Z,18.80
2023-10-26T13:37:40.183Z,18.70
2023-10-26T13:40:09.305Z,18.76
2023-10-26T13:42:37.439Z,18.78
2023-10-26T13:45:06.047Z,18.80
2023-10-26T13:47:34.097Z,18.70
2023-10-26T13:50:02.188Z,18.70
2023-10-26T13:52:31.950Z,18.70
2023-10-26T13:55:00.372Z,18.70
2023-10-26T13:57:31.305Z,18.70
2023-10-26T13:59:59.462Z,18.68
2023-10-26T14:02:27.668Z,18.70
2023-10-26T14:04:55.881Z,18.70
2023-10-26T14:07:24.566Z,18.70
2023-10-26T14:09:53.539Z,18.60
2023-10-26T14:12:21.942Z,18.60
2023-10-26T14:14:50.361Z,18.60
2023-10-26T14:17:18.802Z,18.60
2023-10-26T14:19:48.355Z,18.48
2023-10-26T14:22:16.811Z,18.22
2023-10-26T14:24:45.097Z,18.10
2023-10-26T14:27:13.788Z,17.96
2023-10-26T14:29:42.047Z,17.90
2023-10-26T14:32:10.263Z,17.80
2023-10-26T14:34:39.314Z,17.70
2023-10-26T14:37:07.535Z,17.70
2023-10-26T14:39:35.886Z,17.70
2023-10-26T14:42:04.465Z,17.60
2023-10-26T14:44:32.597Z,17.50
2023-10-26T14:47:02.924Z,17.50
2023-10-26T14:49:32.302Z,17.42
2023-10-26T14:52:01.330Z,17.38
2023-10-26T14:54:29.432Z,17.20
2023-10-26T14:56:58.157Z,17.22
2023-10-26T14:59:26.187Z,17.26
2023-10-26T15:01:54.588Z,17.10
2023-10-26T15:04:22.802Z,17.00
2023-10-26T15:06:51.159Z,17.00
2023-10-26T15:10:19.754Z,17.00
2023-10-26T15:12:07.926Z,17.00
2023-10-26T15:14:36.193Z,16.90
2023-10-26T15:17:04.615Z,16.90
2023-10-26T15:19:35.093Z,16.88
2023-10-26T15:22:03.451Z,16.92
2023-10-26T15:24:32.827Z,16.90
2023-10-26T15:27:00.901Z,16.90
2023-10-26T15:29:29.071Z,16.80
2023-10-26T15:31:57.245Z,16.80
2023-10-26T15:34:26.367Z,16.80
2023-10-26T15:36:54.733Z,16.72
2023-10-26T15:39:22.864Z,16.80
2023-10-26T15:41:50.888Z,16.80
2023-10-26T15:44:21.979Z,16.82
2023-10-26T15:46:50.457Z,16.82
2023-10-26T15:49:33.587Z,16.74
2023-10-26T15:52:04.755Z,16.80
2023-10-26T15:54:33.093Z,16.70
2023-10-26T15:57:01.953Z,16.70
2023-10-26T15:59:30.186Z,16.70
2023-10-26T16:01:58.229Z,16.74
2023-10-26T16:04:26.492Z,16.80
2023-10-26T16:06:54.815Z,16.90
2023-10-26T16:09:23.242Z,17.00
2023-10-26T16:11:51.249Z,17.00
2023-10-26T16:14:19.303Z,17.06
2023-10-26T16:16:47.863Z,17.08
2023-10-26T16:19:16.036Z,17.10
2023-10-26T16:21:44.246Z,17.12
2023-10-26T16:24:13.834Z,17.20
2023-10-26T16:26:41.904Z,17.00
2023-10-26T16:29:10.195Z,16.90
2023-10-26T16:31:38.350Z,16.84
2023-10-26T16:34:07.093Z,16.80
2023-10-26T16:36:35.759Z,16.70
2023-10-26T16:39:04.454Z,16.66
2023-10-26T16:41:34.816Z,16.60
2023-10-26T16:44:03.117Z,16.60
2023-10-26T16:46:34.296Z,16.70
2023-10-26T16:49:05.150Z,16.78
2023-10-26T16:51:33.639Z,16.80
2023-10-26T16:54:04.795Z,16.90
2023-10-26T16:56:33.064Z,16.98
2023-10-26T16:59:01.116Z,17.08
2023-10-26T17:01:29.413Z,17.16
2023-10-26T17:03:57.658Z,17.20
2023-10-26T17:06:26.184Z,17.30
2023-10-26T17:08:56.577Z,17.40
2023-10-26T17:11:24.714Z,17.40
2023-10-26T17:13:52.978Z,17.30
2023-10-26T17:16:21.337Z,17.38
2023-10-26T17:18:49.590Z,17.30
2023-10-26T17:21:17.922Z,17.30
2023-10-26T17:23:45.990Z,17.30
2023-10-26T17:26:16.750Z,17.30
2023-10-26T17:28:45.648Z,17.30
2023-10-26T17:31:14.050Z,17.20
2023-10-26T17:33:42.095Z,17.10
2023-10-26T17:36:10.338Z,17.04
2023-10-26T17:38:40.653Z,17.00
2023-10-26T17:41:12.513Z,16.90
2023-10-26T17:43:43.045Z,16.80
2023-10-26T17:46:15.363Z,16.62
2023-10-26T17:48:45.696Z,16.28
2023-10-26T17:51:15.011Z,16.10
2023-10-26T17:53:43.696Z,15.94
2023-10-26T17:56:14.453Z,15.86
2023-10-26T17:58:42.888Z,15.74
2023-10-26T18:01:11.579Z,15.60
2023-10-26T18:03:39.884Z,15.58
2023-10-26T18:06:08.160Z,15.50
2023-10-26T18:08:39.572Z,15.50
2023-10-26T18:11:07.637Z,15.60
2023-10-26T18:13:37.925Z,15.56
2023-10-26T18:16:12.037Z,15.52
2023-10-26T18:18:44.262Z,15.60
2023-10-26T18:21:15.949Z,15.60
2023-10-26T18:23:46.945Z,15.62
2023-10-26T18:26:15.889Z,15.70
2023-10-26T18:28:44.633Z,15.80
2023-10-26T18:31:16.044Z,15.90
2023-10-26T18:33:45.398Z,15.90
2023-10-26T18:36:15.138Z,15.96
2023-10-26T18:38:46.292Z,16.00
2023-10-26T18:41:27.891Z,16.00
2023-10-26T18:43:56.251Z,16.00
2023-10-26T18:46:27.291Z,15.98
2023-10-26T18:48:55.570Z,15.90
2023-10-26T18:51:24.473Z,16.00
2023-10-26T18:53:52.580Z,16.00
2023-10-26T18:56:26.431Z,16.00
2023-10-26T18:58:56.311Z,15.90
2023-10-26T19:01:26.991Z,15.90
2023-10-26T19:04:02.708Z,15.80
2023-10-26T19:06:33.727Z,15.80
2023-10-26T19:09:01.823Z,15.80
2023-10-26T19:11:30.025Z,15.86
2023-10-26T19:13:58.416Z,15.80
2023-10-26T19:16:26.688Z,15.80
2023-10-26T19:18:58.991Z,15.70
2023-10-26T19:21:27.804Z,15.70
2023-10-26T19:23:55.834Z,15.60
2023-10-26T19:26:24.075Z,15.58
2023-10-26T19:28:57.445Z,15.50
2023-10-26T19:31:25.678Z,15.32
2023-10-26T19:33:53.794Z,15.20
2023-10-26T19:36:22.283Z,15.10
2023-10-26T19:38:50.445Z,14.90
2023-10-26T19:41:19.145Z,14.90
2023-10-26T19:43:47.228Z,15.00
2023-10-26T19:46:18.158Z,15.00
2023-10-26T19:48:48.913Z,15.00
2023-10-26T19:51:17.030Z,14.90
2023-10-26T19:53:48.353Z,14.90
2023-10-26T19:56:16.392Z,14.90
2023-10-26T19:58:44.610Z,15.00
2023-10-26T20:01:16.451Z,15.00
2023-10-26T20:03:45.860Z,15.00
2023-10-26T20:06:14.012Z,15.00
2023-10-26T20:08:42.306Z,15.00
2023-10-26T20:11:10.723Z,15.06
2023-10-26T20:13:38.898Z,15.10
2023-10-26T20:16:07.091Z,15.10
2023-10-26T20:18:39.841Z,15.10
2023-10-26T20:21:09.135Z,15.06
2023-10-26T20:23:37.199Z,15.10
2023-10-26T20:26:05.661Z,15.00
2023-10-26T20:28:33.825Z,15.00
2023-10-26T20:31:02.014Z,15.00
2023-10-26T20:33:30.454Z,15.00
2023-10-26T20:35:58.576Z,14.98
2023-10-26T20:38:27.576Z,14.90
2023-10-26T20:40:55.569Z,14.90
2023-10-26T20:43:23.889Z,14.80
2023-10-26T20:45:59.313Z,14.70
2023-10-26T20:48:28.803Z,14.60
2023-10-26T20:50:59.471Z,14.50
2023-10-26T20:53:29.119Z,14.40
2023-10-26T20:56:00.822Z,14.30
2023-10-26T20:58:29.698Z,14.40
2023-10-26T21:00:58.089Z,14.40
2023-10-26T21:03:26.470Z,14.50
2023-10-26T21:05:54.646Z,14.50
2023-10-26T21:08:23.144Z,14.30
2023-10-26T21:10:51.457Z,14.10
2023-10-26T21:13:19.751Z,14.10
2023-10-26T21:15:48.249Z,13.92
2023-10-26T21:18:16.444Z,14.00
2023-10-26T21:20:44.505Z,14.12
2023-10-26T21:23:12.486Z,14.20
2023-10-26T21:25:40.609Z,14.30
2023-10-26T21:28:09.408Z,14.20
2023-10-26T21:30:38.647Z,14.30
2023-10-26T21:33:06.812Z,14.40
2023-10-26T21:35:38.793Z,14.30
2023-10-26T21:38:09.628Z,14.20
2023-10-26T21:40:41.212Z,14.20
2023-10-26T21:43:10.763Z,14.20
2023-10-26T21:45:39.100Z,14.20
2023-10-26T21:48:07.238Z,14.10
2023-10-26T21:50:35.522Z,14.10
2023-10-26T21:53:04.389Z,14.10
2023-10-26T21:55:34.346Z,14.00
2023-10-26T21:58:02.963Z,14.00
2023-10-26T22:00:32.258Z,14.00
2023-10-26T22:03:00.982Z,14.06
2023-10-26T22:05:29.583Z,14.10
2023-10-26T22:07:57.638Z,14.10
2023-10-26T22:10:25.948Z,14.10
2023-10-26T22:12:54.762Z,14.00
2023-10-26T22:15:23.309Z,14.10
2023-10-26T22:17:51.460Z,14.10
2023-10-26T22:20:19.766Z,14.10
2023-10-26T22:22:47.736Z,14.10
2023-10-26T22:25:16.130Z,14.00
2023-10-26T22:27:44.283Z,14.10
2023-10-26T22:30:13.043Z,13.96
2023-10-26T22:32:41.336Z,13.90
2023-10-26T22:35:10.328Z,13.80
2023-10-26T22:37:39.227Z,13.80
2023-10-26T22:40:07.875Z,13.80
2023-10-26T22:42:36.306Z,13.90
2023-10-26T22:45:04.832Z,13.90
2023-10-26T22:47:33.235Z,13.90
2023-10-26T22:50:01.616Z,13.90
2023-10-26T22:52:29.702Z,13.90
2023-10-26T22:54:59.112Z,13.92
2023-10-26T22:57:29.047Z,14.00
2023-10-26T22:59:57.459Z,14.00
2023-10-26T23:02:25.729Z,14.00
2023-10-26T23:04:54.298Z,14.08
2023-10-26T23:07:22.567Z,14.06
2023-10-26T23:09:50.576Z,14.12
2023-10-26T23:12:18.718Z,14.18
2023-10-26T23:14:46.987Z,14.26
2023-10-26T23:17:15.356Z,14.30
2023-10-26T23:19:43.886Z,14.40
2023-10-26T23:22:12.358Z,14.50
2023-10-26T23:24:40.520Z,14.52
2023-10-26T23:27:08.720Z,14.60
2023-10-26T23:29:36.990Z,14.60
2023-10-26T23:32:05.797Z,14.50
2023-10-26T23:34:34.112Z,14.50
2023-10-26T23:37:02.431Z,14.40
2023-10-26T23:39:30.906Z,14.30
2023-10-26T23:41:59.100Z,14.30
2023-10-26T23:44:27.815Z,14.26
2023-10-26T23:46:55.757Z,14.30
2023-10-26T23:49:24.296Z,14.30
2023-10-26T23:51:52.321Z,14.40
2023-10-26T23:54:22.550Z,14.40
2023-10-26T23:56:51.172Z,14.50
2023-10-26T23:59:19.539Z,14.50
